Siler City, NC (27344)

6:32 PM EST on February 01, 2015 (GMT -0500)
KNCPITTS5 | Change Station
CLOSE
Current Station
Personal Weather Station
Location: Sortova Farm, Pittsboro, NC
Elevation: 522 ft
Nearby Weather Stations

Elev 522 ft 35.80 °N, 79.23 °W | Updated 2 minutes ago

Mostly Cloudy
Mostly Cloudy
52.2 °F
Feels Like 52.2 °F
N
3.0
Wind Variable Wind from SSW
Gusts 8.0 mph

Today
High -- | Low -- °F
--% Chance of Precip.
Yesterday
High -- | Low -- °F
Precip. -- in
7:18 AM 5:44 PM
Waxing Gibbous, 96% visible
Pressure 30.03 in
Visibility 10.0 miles
Clouds Clear
Dew Point 35 °F
Humidity 51%
Rainfall 0.00 in
Snow Depth Not available.
UV 0 out of 12
Pollen 3.00 out of 12
Air Quality Not available.
Flu Activity Not available.
METAR KTTA 012255Z AUTO 14003KT 10SM CLR 12/M01 A3003 RMK AO2 T01171010

More Conditions Fewer Conditions

Pressure 30.03 in
Visibility 10.0 miles
Clouds Clear
Dew Point 35 °F
Humidity 51%
Rainfall 0.00 in
Snow Depth Not available.
UV 0 out of 12
Pollen 3.00 out of 12
Air Quality Not available.
Flu Activity Not available.
METAR KTTA 012255Z AUTO 14003KT 10SM CLR 12/M01 A3003 RMK AO2 T01171010

More Conditions Fewer Conditions

10-Day Weather Forecast

Almanac

Astronomy

Feb. 01, 2015 Rise Set
Actual Time
Civil Twilight
Nautical Twilight
Astronomical Twilight
Moon
Length of Visible Light
Length of Day
Tomorrow will be .
, % of the Moon is Illuminated

Today's Extremes

State Highs State Lows

Community

WunderPhotos

Upload Photos

1,792,609 photos uploaded!

WunderBlogs® & News

Nearby

Air Quality

  Air Quality AQ Index Pollutant
Not available.

Snow Depth

Station Depth Elevation

Earthquake Activity

City Distance Mag. Time & Date
Minimum magnitude displayed is 2.5.

Coastal Water Temperatures

Place Temperature

Nearby Weather Stations